Rechercher aéroport 
image banner adimage banner adimage banner ad
image banner ad

PS61 - Tidioute

Situé à Tidioute, United States

ICAO - PS61, IATA -

Données fournies par Airmate  

Information générale

Coordonnées: N41°41'27" W79°21'57"
Élévation : 1100 feet MSL.
Variation magnétique : -09° East
Voir autres Aéroports à Pennsylvania

Données opérationnelles

Special qualification required
Heure actuelle UTC:
Heure actuelle locale:
Météo à : KJHW - Chautauqua County/Jamestown ( 52 km )
METAR: KJHW 150656Z AUTO 29006KT 10SM FEW020 SCT028 BKN035 13/12 A2988 RMK AO2 SLP118 T01330122
TAF: KJHW 150530Z 1506/1606 33004KT P6SM SCT035 TEMPO 1506/1508 5SM BR FM150800 29007KT P6SM BKN025 TEMPO 1508/1511 3SM BR FM151100 29008KT P6SM BKN012 FM151500 31011G17KT P6SM BKN035 FM160000 33008KT P6SM SCT250
Voir NOTAMs / SUP AIP / TFR affectant cet aéroport [VIEW]
Fréquences de communication: [VIEW]

Pistes:

Identifiant RWYQFULongueur (ft)Largeur (ft)SurfaceLDA (ft)
061640100GRASS
241640100GRASS

Coordonnées de l'aéroport

Adresse: Tidioute United States

Vue satellite de PS61